Time;durP1;ratioP1;P1;durP2;ratioP2;P2;SDS_P1;SDS_P2;PMS_P1;PMS_P2;Temp;Humidity;BMP_temperature;BMP_pressure;BME280_temperature;BME280_humidity;BME280_pressure;Samples;Min_cycle;Max_cycle;Signal;HPM_P1;HPM_P2
2023/01/10 08:04:28;;;;;;;14.88;2.05;;;5.30;99.90;;;;;;5342942;23;20047;-74
2023/01/10 08:06:55;;;;;;;11.32;2.10;;;5.30;99.90;;;;;;4966095;28;20044;-76
2023/01/10 08:09:21;;;;;;;17.05;2.25;;;5.30;99.90;;;;;;4956006;28;20411;-77
2023/01/10 08:11:48;;;;;;;9.82;1.77;;;5.20;99.90;;;;;;4956549;29;20074;-78
2023/01/10 08:14:15;;;;;;;10.77;2.00;;;5.20;99.90;;;;;;4957279;28;20059;-78
2023/01/10 08:16:41;;;;;;;5.60;1.75;;;5.20;99.90;;;;;;4953072;28;20126;-76
2023/01/10 08:19:08;;;;;;;13.45;2.58;;;5.20;99.90;;;;;;4955091;29;20047;-75
2023/01/10 08:21:35;;;;;;;13.90;2.00;;;5.20;99.90;;;;;;4955536;29;20517;-76
2023/01/10 08:24:01;;;;;;;7.75;1.63;;;5.20;99.90;;;;;;4958515;29;20055;-76
2023/01/10 08:26:28;;;;;;;10.07;2.05;;;5.20;99.90;;;;;;4953272;29;20134;-77
2023/01/10 08:28:55;;;;;;;11.40;2.00;;;5.20;99.90;;;;;;4956330;28;20055;-77
2023/01/10 08:31:21;;;;;;;9.38;1.63;;;5.20;99.90;;;;;;4953470;28;20055;-76
2023/01/10 08:33:48;;;;;;;7.72;1.70;;;5.20;99.90;;;;;;4955399;29;20053;-75
2023/01/10 08:36:17;;;;;;;13.82;2.50;;;5.20;99.90;;;;;;4957079;28;20694;-75
2023/01/10 08:38:44;;;;;;;13.88;2.20;;;5.20;99.90;;;;;;4956087;28;20051;-75
2023/01/10 08:41:12;;;;;;;9.35;1.95;;;5.20;99.90;;;;;;4957160;28;20105;-75
2023/01/10 08:43:39;;;;;;;12.65;2.00;;;5.20;99.90;;;;;;4956466;29;20421;-75
2023/01/10 08:46:06;;;;;;;11.07;1.92;;;5.20;99.90;;;;;;4956427;28;20170;-75
2023/01/10 08:48:33;;;;;;;4.75;1.85;;;5.20;99.90;;;;;;4955681;29;20495;-78
2023/01/10 08:51:07;;;;;;;6.45;1.90;;;5.10;99.90;;;;;;4955280;28;20047;-78
2023/01/10 08:53:33;;;;;;;8.85;2.33;;;5.10;99.90;;;;;;4949723;29;20416;-78
2023/01/10 08:56:01;;;;;;;10.48;2.30;;;5.10;99.90;;;;;;4950540;29;20046;-78
2023/01/10 08:58:30;;;;;;;11.70;1.67;;;5.10;99.90;;;;;;4954741;29;20090;-78
2023/01/10 09:00:57;;;;;;;5.53;1.77;;;5.10;99.90;;;;;;4952225;28;20055;-79
2023/01/10 09:03:24;;;;;;;17.05;2.45;;;5.10;99.90;;;;;;4955074;28;20070;-78
2023/01/10 09:05:50;;;;;;;12.25;2.75;;;5.20;99.90;;;;;;4950846;29;20043;-78
2023/01/10 09:08:17;;;;;;;12.23;2.22;;;5.20;99.90;;;;;;4949761;28;20051;-78
2023/01/10 09:10:43;;;;;;;11.00;2.80;;;5.30;99.90;;;;;;4954725;28;20081;-78
2023/01/10 09:13:10;;;;;;;12.13;2.53;;;5.30;99.90;;;;;;4956365;29;20048;-78
2023/01/10 09:15:37;;;;;;;13.55;2.30;;;5.40;99.90;;;;;;4953140;29;20058;-79
2023/01/10 09:18:06;;;;;;;11.20;2.53;;;5.40;99.90;;;;;;4950851;28;20093;-78
2023/01/10 09:20:36;;;;;;;7.70;2.20;;;5.40;99.90;;;;;;4967096;28;20062;-78
2023/01/10 09:23:11;;;;;;;12.07;2.47;;;5.50;99.90;;;;;;4954045;29;20130;-78
2023/01/10 09:25:38;;;;;;;8.88;2.20;;;5.50;99.90;;;;;;4952587;28;20082;-78
2023/01/10 09:28:05;;;;;;;13.82;3.10;;;5.50;99.90;;;;;;4950832;28;20043;-78
2023/01/10 09:30:32;;;;;;;20.38;3.85;;;5.50;99.90;;;;;;4953528;28;20157;-78
2023/01/10 09:32:59;;;;;;;12.60;2.78;;;5.50;99.90;;;;;;4952810;28;21462;-78
2023/01/10 09:35:27;;;;;;;9.35;2.40;;;5.50;99.90;;;;;;4955195;29;20043;-78
2023/01/10 09:37:56;;;;;;;10.93;2.80;;;5.50;99.90;;;;;;4953029;28;20047;-78
2023/01/10 09:40:49;;;;;;;16.67;3.53;;;5.50;99.90;;;;;;4951991;28;20134;-78
2023/01/10 09:43:27;;;;;;;12.57;3.17;;;5.60;99.90;;;;;;4962009;28;20044;-78
2023/01/10 09:46:08;;;;;;;6.93;2.15;;;5.60;99.90;;;;;;4952816;28;20062;-78
2023/01/10 09:48:47;;;;;;;19.48;5.72;;;5.60;99.90;;;;;;4962478;28;20493;-78
2023/01/10 09:51:23;;;;;;;13.20;3.30;;;5.60;99.90;;;;;;4953638;28;20055;-78
2023/01/10 09:53:53;;;;;;;20.50;3.38;;;5.60;99.90;;;;;;4950992;29;20051;-78
2023/01/10 09:56:28;;;;;;;15.43;3.38;;;5.60;99.90;;;;;;4955685;28;20153;-78
2023/01/10 09:58:56;;;;;;;11.93;2.65;;;5.70;99.90;;;;;;4948288;28;20276;-78
2023/01/10 10:01:28;;;;;;;11.02;2.25;;;5.70;99.90;;;;;;4952661;28;20058;-78
2023/01/10 10:04:09;;;;;;;15.52;2.42;;;5.70;99.90;;;;;;4952503;29;20980;-78
2023/01/10 10:06:36;;;;;;;13.35;2.92;;;5.70;99.90;;;;;;4951969;28;20397;-78
2023/01/10 10:09:03;;;;;;;17.50;3.75;;;5.80;99.90;;;;;;4951212;28;20093;-78
2023/01/10 10:11:47;;;;;;;12.05;2.63;;;5.80;99.90;;;;;;4954506;28;20082;-78
2023/01/10 10:14:37;;;;;;;13.80;2.78;;;5.80;99.90;;;;;;4951775;28;20058;-78
2023/01/10 10:17:27;;;;;;;;;;;5.90;99.90;;;;;;4953701;28;20077;-78
2023/01/10 10:19:57;;;;;;;;;;;5.90;99.90;;;;;;4954263;28;19953;-78
2023/01/10 10:22:38;;;;;;;18.27;2.78;;;5.90;99.90;;;;;;4958334;29;19929;-77
2023/01/10 10:25:36;;;;;;;9.57;2.38;;;5.90;99.90;;;;;;4952619;28;20048;-78
2023/01/10 10:28:13;;;;;;;13.85;2.55;;;6.00;99.90;;;;;;4958498;29;20420;-78
2023/01/10 10:30:55;;;;;;;10.48;2.08;;;6.00;99.90;;;;;;4956949;28;20051;-76
2023/01/10 10:33:52;;;;;;;12.98;2.40;;;6.00;99.90;;;;;;4954629;28;20046;-78
2023/01/10 10:36:54;;;;;;;9.07;2.25;;;6.00;99.90;;;;;;4956299;28;20044;-79
2023/01/10 10:39:37;;;;;;;12.98;2.13;;;6.10;99.90;;;;;;4951704;29;20070;-78
2023/01/10 10:42:09;;;;;;;22.95;2.30;;;6.20;99.90;;;;;;4971910;28;20075;-78
2023/01/10 10:44:53;;;;;;;15.98;2.47;;;6.20;99.90;;;;;;4954630;29;20061;-78
2023/01/10 10:47:22;;;;;;;10.65;1.95;;;6.20;99.90;;;;;;4970527;28;20059;-78
2023/01/10 10:49:59;;;;;;;16.98;2.15;;;6.20;99.90;;;;;;4957573;28;20099;-78
2023/01/10 10:52:30;;;;;;;8.80;1.90;;;6.20;99.90;;;;;;4955859;29;20047;-78
2023/01/10 10:54:58;;;;;;;9.95;1.90;;;6.20;99.90;;;;;;4957022;28;20050;-78
2023/01/10 10:57:27;;;;;;;14.70;2.08;;;6.20;99.90;;;;;;4955776;29;20588;-78
2023/01/10 10:59:55;;;;;;;15.27;1.97;;;6.20;99.90;;;;;;4957865;28;20043;-78
2023/01/10 11:02:30;;;;;;;14.70;2.25;;;6.20;99.90;;;;;;4948653;28;20051;-76
2023/01/10 11:05:03;;;;;;;11.52;2.65;;;6.30;99.90;;;;;;4949056;28;20113;-78
2023/01/10 11:07:36;;;;;;;16.25;3.03;;;6.30;99.90;;;;;;4953278;29;20060;-77
2023/01/10 11:10:35;;;;;;;15.20;4.82;;;6.40;99.90;;;;;;4951683;28;20451;-76
2023/01/10 11:13:12;;;;;;;10.52;2.95;;;6.40;99.90;;;;;;4951924;29;20046;-78
2023/01/10 11:15:45;;;;;;;13.38;2.28;;;6.50;99.90;;;;;;4951050;28;20401;-78
2023/01/10 11:18:24;;;;;;;18.42;2.45;;;6.60;99.90;;;;;;4952690;28;20053;-76
2023/01/10 11:21:07;;;;;;;13.05;2.78;;;6.70;99.90;;;;;;4952236;29;20059;-77
2023/01/10 11:23:40;;;;;;;10.35;1.90;;;6.70;99.90;;;;;;4951362;28;20055;-78
2023/01/10 11:26:20;;;;;;;11.27;3.45;;;6.80;99.90;;;;;;4951696;28;20043;-77
2023/01/10 11:28:47;;;;;;;14.48;2.65;;;6.80;99.90;;;;;;4951674;28;20043;-78
2023/01/10 11:31:24;;;;;;;12.43;3.20;;;6.80;99.90;;;;;;4954401;28;20058;-77
2023/01/10 11:33:50;;;;;;;8.82;2.05;;;6.80;99.90;;;;;;4951141;28;20085;-77
2023/01/10 11:36:17;;;;;;;10.45;2.95;;;6.80;99.90;;;;;;4955544;28;20077;-77
2023/01/10 11:39:01;;;;;;;11.00;2.45;;;6.80;99.90;;;;;;4954085;28;20528;-77
2023/01/10 11:41:33;;;;;;;12.88;2.97;;;6.90;99.90;;;;;;4953767;28;20054;-77
2023/01/10 11:44:25;;;;;;;15.68;3.78;;;6.90;99.90;;;;;;4951979;28;20547;-77
2023/01/10 11:46:55;;;;;;;14.13;3.25;;;7.00;99.90;;;;;;4952150;28;20053;-77
2023/01/10 11:49:37;;;;;;;8.40;2.10;;;7.10;99.90;;;;;;4953523;28;20043;-77
2023/01/10 11:52:20;;;;;;;9.60;2.35;;;7.20;99.90;;;;;;4953374;28;20062;-77
2023/01/10 11:54:47;;;;;;;11.60;2.85;;;7.20;99.90;;;;;;4946983;29;20491;-77
2023/01/10 11:57:17;;;;;;;10.00;2.40;;;7.30;99.90;;;;;;4952836;29;20444;-77
2023/01/10 12:00:05;;;;;;;8.60;2.10;;;7.20;99.90;;;;;;4952166;28;20047;-77
2023/01/10 12:02:40;;;;;;;8.50;2.08;;;7.20;99.90;;;;;;4953553;29;20058;-77
2023/01/10 12:05:18;;;;;;;9.10;1.92;;;7.30;99.90;;;;;;4951964;28;20047;-78
2023/01/10 12:08:04;;;;;;;8.65;1.95;;;7.30;99.90;;;;;;4952980;29;20079;-77
2023/01/10 12:10:33;;;;;;;14.10;2.42;;;7.30;99.90;;;;;;4953946;28;20134;-77
2023/01/10 12:13:14;;;;;;;10.70;2.10;;;7.30;99.90;;;;;;4954130;28;20138;-77
2023/01/10 12:15:41;;;;;;;6.07;1.67;;;7.30;99.90;;;;;;4954406;28;20050;-77
2023/01/10 12:18:10;;;;;;;10.45;1.98;;;7.30;99.90;;;;;;4954585;29;20047;-77
2023/01/10 12:20:47;;;;;;;10.70;1.88;;;7.30;99.90;;;;;;4953637;28;20127;-76
2023/01/10 12:23:19;;;;;;;10.13;2.03;;;7.30;99.90;;;;;;4953128;29;20560;-76
2023/01/10 12:25:47;;;;;;;8.27;2.20;;;7.30;99.90;;;;;;4952160;28;20047;-76
2023/01/10 12:28:26;;;;;;;7.97;2.10;;;7.40;99.90;;;;;;4951983;28;20050;-76
2023/01/10 12:30:55;;;;;;;10.65;1.90;;;7.40;99.90;;;;;;4948630;28;20393;-76
2023/01/10 12:33:30;;;;;;;8.13;2.00;;;7.40;99.90;;;;;;4952307;28;20456;-76
2023/01/10 12:36:17;;;;;;;8.10;1.95;;;7.40;99.90;;;;;;4950061;29;20138;-76
2023/01/10 12:39:05;;;;;;;8.45;1.67;;;7.50;99.90;;;;;;4953749;28;20464;-76
2023/01/10 12:44:43;;;;;;;13.05;2.58;;;7.40;99.90;;;;;;4952689;29;20047;-77
2023/01/10 12:47:19;;;;;;;7.95;1.77;;;7.40;99.90;;;;;;4952198;28;20162;-77
2023/01/10 12:49:58;;;;;;;8.82;1.88;;;7.40;99.90;;;;;;4953120;28;20105;-77
2023/01/10 12:52:47;;;;;;;10.77;2.17;;;7.40;99.90;;;;;;4946822;28;20075;-77
2023/01/10 12:55:20;;;;;;;12.03;2.40;;;7.40;99.90;;;;;;4951464;29;20047;-76
2023/01/10 12:57:52;;;;;;;12.10;1.67;;;7.40;99.90;;;;;;4942030;28;20374;-76
2023/01/10 13:00:23;;;;;;;9.45;1.90;;;7.40;99.90;;;;;;4949414;28;20051;-76
2023/01/10 13:02:53;;;;;;;5.13;1.65;;;7.40;99.90;;;;;;4950226;28;20051;-77
2023/01/10 13:05:23;;;;;;;7.05;1.40;;;7.50;99.90;;;;;;4949885;28;20051;-77
2023/01/10 13:07:54;;;;;;;8.80;2.45;;;7.50;99.90;;;;;;4954315;28;20146;-78
2023/01/10 13:10:23;;;;;;;4.43;1.85;;;7.50;99.90;;;;;;4951112;28;20051;-77
2023/01/10 13:13:11;;;;;;;10.63;1.67;;;7.50;99.90;;;;;;4953111;29;20054;-76
2023/01/10 13:15:46;;;;;;;4.40;1.30;;;7.60;99.90;;;;;;4952092;28;20047;-77
2023/01/10 13:18:33;;;;;;;8.15;1.55;;;7.60;99.90;;;;;;4952917;28;20098;-77
2023/01/10 13:21:13;;;;;;;4.90;1.27;;;7.70;99.90;;;;;;4947634;28;20047;-76
2023/01/10 13:23:51;;;;;;;7.47;1.45;;;7.70;99.90;;;;;;4951584;28;20808;-77
2023/01/10 13:26:18;;;;;;;7.25;2.30;;;7.70;99.90;;;;;;4951381;29;20134;-77
2023/01/10 13:28:59;;;;;;;6.20;1.20;;;7.80;99.90;;;;;;4951612;28;20043;-77
2023/01/10 13:31:33;;;;;;;4.28;1.40;;;7.80;99.90;;;;;;4951484;28;20047;-78
2023/01/10 13:34:07;;;;;;;3.85;2.15;;;7.90;99.90;;;;;;4964052;28;20052;-76
2023/01/10 13:36:44;;;;;;;5.38;1.52;;;7.90;99.90;;;;;;4949466;28;20179;-77
2023/01/10 13:39:37;;;;;;;6.65;1.63;;;7.90;99.90;;;;;;4952828;29;20071;-76
2023/01/10 13:45:08;;;;;;;7.93;1.30;;;7.90;99.90;;;;;;4947914;28;20047;-76
2023/01/10 13:47:38;;;;;;;4.97;1.10;;;7.90;99.90;;;;;;4952826;28;20087;-76
2023/01/10 13:50:24;;;;;;;8.68;1.40;;;7.90;99.90;;;;;;4951330;28;20085;-76
2023/01/10 13:52:52;;;;;;;5.47;1.33;;;7.90;99.90;;;;;;4953536;28;20396;-77
2023/01/10 13:55:27;;;;;;;6.97;1.38;;;8.00;99.90;;;;;;4953708;29;20047;-76
2023/01/10 13:57:59;;;;;;;6.25;1.58;;;8.00;99.90;;;;;;4955925;28;20130;-76
2023/01/10 14:03:40;;;;;;;4.57;1.50;;;8.00;99.90;;;;;;4951641;28;20055;-76
2023/01/10 14:06:26;;;;;;;6.22;1.52;;;8.00;99.90;;;;;;4955244;29;20436;-76
2023/01/10 14:08:57;;;;;;;6.72;1.60;;;8.00;99.90;;;;;;4953035;28;20062;-76
2023/01/10 14:11:55;;;;;;;4.40;1.40;;;8.00;99.90;;;;;;4949361;28;20130;-77
2023/01/10 14:14:33;;;;;;;6.63;1.20;;;8.00;99.90;;;;;;4952049;28;20048;-76
2023/01/10 14:17:21;;;;;;;4.18;1.67;;;8.00;99.90;;;;;;4952563;29;20146;-76
2023/01/10 14:20:00;;;;;;;2.92;1.20;;;8.00;99.90;;;;;;4954655;28;20511;-76
2023/01/10 14:22:30;;;;;;;7.50;1.58;;;8.00;99.90;;;;;;4953457;28;20047;-76
2023/01/10 14:24:59;;;;;;;7.50;1.30;;;8.10;99.90;;;;;;4954900;28;20062;-76
2023/01/10 14:27:35;;;;;;;3.77;1.20;;;8.00;99.90;;;;;;4952510;28;20053;-76
2023/01/10 14:30:02;;;;;;;6.00;1.63;;;8.10;99.90;;;;;;4951832;28;20062;-77
2023/01/10 14:32:34;;;;;;;5.05;1.70;;;8.10;99.90;;;;;;4955036;28;20052;-76
2023/01/10 14:35:05;;;;;;;8.48;2.35;;;8.10;99.90;;;;;;4953645;28;20428;-76
2023/01/10 14:37:54;;;;;;;5.70;2.22;;;8.10;99.90;;;;;;4952858;28;20047;-77
2023/01/10 14:40:42;;;;;;;5.10;1.42;;;8.10;99.90;;;;;;4952080;29;20411;-77
2023/01/10 14:43:15;;;;;;;7.10;2.00;;;8.10;99.90;;;;;;4953627;28;20047;-77
2023/01/10 14:45:50;;;;;;;9.10;2.20;;;8.10;99.90;;;;;;4946764;28;20051;-76
2023/01/10 14:48:28;;;;;;;9.10;2.00;;;8.10;99.90;;;;;;4951853;28;20050;-76
2023/01/10 14:51:19;;;;;;;6.40;1.63;;;8.10;99.90;;;;;;4954891;29;20047;-76
2023/01/10 14:53:54;;;;;;;6.47;1.75;;;8.10;99.90;;;;;;4945601;29;20058;-76
2023/01/10 14:56:25;;;;;;;3.25;1.10;;;8.10;99.90;;;;;;4969097;28;20127;-78
2023/01/10 14:58:51;;;;;;;8.00;2.15;;;8.00;99.90;;;;;;4952800;29;20517;-77
2023/01/10 15:01:23;;;;;;;7.47;1.90;;;8.00;99.90;;;;;;4955541;28;20043;-77
2023/01/10 15:03:51;;;;;;;4.15;1.25;;;8.10;99.90;;;;;;4954493;29;20078;-77
2023/01/10 15:06:18;;;;;;;6.07;1.85;;;8.00;99.90;;;;;;4954857;28;20086;-77
2023/01/10 15:08:44;;;;;;;9.10;2.22;;;8.00;99.90;;;;;;4955968;28;20055;-77
2023/01/10 15:11:13;;;;;;;6.43;1.30;;;7.90;99.90;;;;;;4955096;28;20047;-76
2023/01/10 15:13:53;;;;;;;5.93;1.35;;;7.90;99.90;;;;;;4951344;29;20056;-77
2023/01/10 15:16:23;;;;;;;8.10;1.50;;;7.90;99.90;;;;;;4951150;29;20090;-76
2023/01/10 15:18:50;;;;;;;5.78;1.65;;;7.80;99.90;;;;;;4955802;28;20058;-77
2023/01/10 15:21:20;;;;;;;8.88;2.53;;;7.80;99.90;;;;;;4949719;29;20075;-77
2023/01/10 15:23:48;;;;;;;9.35;3.47;;;7.70;99.90;;;;;;4953969;29;20074;-77
2023/01/10 15:26:25;;;;;;;9.20;3.10;;;7.70;99.90;;;;;;4952169;28;20047;-77
2023/01/10 15:29:13;;;;;;;10.90;3.25;;;7.70;99.90;;;;;;4955030;28;20058;-77
2023/01/10 15:31:40;;;;;;;7.35;2.17;;;7.60;99.90;;;;;;4954215;29;20078;-77
2023/01/10 15:34:16;;;;;;;9.57;2.78;;;7.60;99.90;;;;;;4953285;28;20051;-77
2023/01/10 15:36:56;;;;;;;8.65;2.20;;;7.60;99.90;;;;;;4953792;28;20047;-77
2023/01/10 15:39:26;;;;;;;8.80;2.30;;;7.60;99.90;;;;;;4952421;29;20091;-77
2023/01/10 15:42:02;;;;;;;7.93;1.50;;;7.50;99.90;;;;;;4952457;28;20298;-76
2023/01/10 15:44:41;;;;;;;7.88;1.75;;;7.50;99.90;;;;;;4954130;29;20505;-77
2023/01/10 15:47:40;;;;;;;6.60;1.60;;;7.50;99.90;;;;;;4953813;29;20055;-76
2023/01/10 15:50:22;;;;;;;8.02;3.47;;;7.40;99.90;;;;;;4954129;29;20057;-77
2023/01/10 15:52:51;;;;;;;9.98;1.65;;;7.40;99.90;;;;;;4952715;29;20142;-76
2023/01/10 15:55:38;;;;;;;7.65;1.67;;;7.40;99.90;;;;;;4952659;28;20516;-76
2023/01/10 15:58:17;;;;;;;4.57;1.60;;;7.30;99.90;;;;;;4945064;28;20040;-77
2023/01/10 16:00:46;;;;;;;5.75;1.55;;;7.30;99.90;;;;;;4953317;29;20048;-77
2023/01/10 16:03:21;;;;;;;8.75;1.92;;;7.40;99.90;;;;;;4951689;28;20050;-77
2023/01/10 16:05:54;;;;;;;9.23;2.42;;;7.40;99.90;;;;;;4946731;29;20058;-77
2023/01/10 16:08:24;;;;;;;8.55;2.17;;;7.40;99.90;;;;;;4953027;29;20051;-76
2023/01/10 16:10:57;;;;;;;6.28;1.73;;;7.30;99.90;;;;;;4953574;29;20142;-76
2023/01/10 16:13:27;;;;;;;8.63;2.75;;;7.30;99.90;;;;;;4951073;28;20047;-77
2023/01/10 16:15:55;;;;;;;7.40;2.00;;;7.40;99.90;;;;;;4952977;28;20476;-77
2023/01/10 16:18:22;;;;;;;5.30;1.80;;;7.40;99.90;;;;;;4954491;28;20087;-77
2023/01/10 16:20:50;;;;;;;6.05;1.65;;;7.40;99.90;;;;;;4954431;28;20073;-76
2023/01/10 16:23:31;;;;;;;4.32;1.80;;;7.30;99.90;;;;;;4954136;28;20051;-77
2023/01/10 16:26:01;;;;;;;4.10;1.33;;;7.40;99.90;;;;;;4953231;29;20051;-77
2023/01/10 16:28:31;;;;;;;8.30;2.67;;;7.40;99.90;;;;;;4951680;29;20055;-77
2023/01/10 16:30:58;;;;;;;8.52;2.38;;;7.40;99.90;;;;;;4951943;29;20135;-77
2023/01/10 16:33:26;;;;;;;14.25;4.30;;;7.40;99.90;;;;;;4952014;29;20143;-76
2023/01/10 16:35:55;;;;;;;10.50;3.05;;;7.40;99.90;;;;;;4954602;29;20480;-77
2023/01/10 16:38:23;;;;;;;12.25;3.75;;;7.40;99.90;;;;;;4953972;28;20164;-77
2023/01/10 16:40:51;;;;;;;5.70;1.60;;;7.40;99.90;;;;;;4951044;29;20151;-77
2023/01/10 16:43:18;;;;;;;5.57;1.17;;;7.40;99.90;;;;;;4951394;29;20168;-76
2023/01/10 16:45:51;;;;;;;5.88;1.33;;;7.40;99.90;;;;;;4949878;29;20061;-76
2023/01/10 16:48:19;;;;;;;7.22;1.13;;;7.40;99.90;;;;;;4952264;29;20102;-76
2023/01/10 16:50:47;;;;;;;4.95;1.35;;;7.40;99.90;;;;;;4953275;29;20102;-76
2023/01/10 16:53:16;;;;;;;6.20;1.27;;;7.40;99.90;;;;;;4949813;29;20518;-76
2023/01/10 16:55:46;;;;;;;5.22;1.25;;;7.40;99.90;;;;;;4952253;29;20130;-76
2023/01/10 16:58:14;;;;;;;4.15;1.02;;;7.40;99.90;;;;;;4951481;28;20520;-76
2023/01/10 17:00:43;;;;;;;3.15;1.13;;;7.40;99.90;;;;;;4950468;28;20048;-76
2023/01/10 17:03:20;;;;;;;4.93;1.20;;;7.40;99.90;;;;;;4966670;28;20047;-76
2023/01/10 17:05:47;;;;;;;7.47;1.25;;;7.40;99.90;;;;;;4967039;28;20052;-76
2023/01/10 17:08:20;;;;;;;4.10;1.50;;;7.40;99.90;;;;;;4947916;29;20055;-76
2023/01/10 17:10:50;;;;;;;3.80;0.93;;;7.50;99.90;;;;;;4953188;29;20523;-76
2023/01/10 17:13:29;;;;;;;4.72;1.23;;;7.50;99.90;;;;;;4949726;28;20043;-76
2023/01/10 17:15:57;;;;;;;4.13;1.10;;;7.50;99.90;;;;;;4949704;29;20051;-76
2023/01/10 17:18:27;;;;;;;7.13;1.60;;;7.50;99.90;;;;;;4953562;28;20050;-76
2023/01/10 17:20:55;;;;;;;4.82;1.35;;;7.50;99.90;;;;;;4953305;28;20536;-76
2023/01/10 17:23:24;;;;;;;4.40;1.10;;;7.50;99.90;;;;;;4952372;29;20058;-76
2023/01/10 17:26:01;;;;;;;10.77;2.08;;;7.50;99.90;;;;;;4951269;29;20047;-76
2023/01/10 17:28:28;;;;;;;3.55;1.85;;;7.50;99.90;;;;;;4951390;28;20051;-76
2023/01/10 17:30:56;;;;;;;5.95;2.25;;;7.50;99.90;;;;;;4952693;29;20500;-77
2023/01/10 17:33:24;;;;;;;7.63;1.60;;;7.60;99.90;;;;;;4951445;29;20678;-76
2023/01/10 17:35:56;;;;;;;3.33;1.30;;;7.60;99.90;;;;;;4953120;28;20423;-76
2023/01/10 17:38:24;;;;;;;4.25;1.40;;;7.60;99.90;;;;;;4951834;29;20497;-76
2023/01/10 17:40:52;;;;;;;1.98;1.10;;;7.60;99.90;;;;;;4953375;28;20058;-76
2023/01/10 17:43:19;;;;;;;4.60;1.10;;;7.60;99.90;;;;;;4945861;29;20062;-76
2023/01/10 17:45:49;;;;;;;3.22;1.15;;;7.70;99.90;;;;;;4950917;29;20047;-76
2023/01/10 17:48:17;;;;;;;5.63;1.20;;;7.70;99.90;;;;;;4952771;28;20058;-76
2023/01/10 17:50:46;;;;;;;5.55;1.00;;;7.60;99.90;;;;;;4950292;29;20047;-76
2023/01/10 17:53:14;;;;;;;1.27;0.63;;;7.70;99.90;;;;;;4949267;29;20052;-76
2023/01/10 17:55:44;;;;;;;1.75;0.93;;;7.70;99.90;;;;;;4953350;28;20054;-77
2023/01/10 17:58:12;;;;;;;4.55;2.13;;;7.70;99.90;;;;;;4942633;29;20130;-76
2023/01/10 18:00:39;;;;;;;4.95;1.92;;;7.70;99.90;;;;;;4951784;28;20047;-76
2023/01/10 18:03:06;;;;;;;2.75;1.40;;;7.70;99.90;;;;;;4952528;28;20055;-77
2023/01/10 18:05:34;;;;;;;4.85;1.00;;;7.70;99.90;;;;;;4952493;29;20051;-77
2023/01/10 18:08:02;;;;;;;6.22;1.58;;;7.80;99.90;;;;;;4952484;28;20050;-77
2023/01/10 18:10:29;;;;;;;2.97;1.40;;;7.80;99.90;;;;;;4952555;28;20401;-77
2023/01/10 18:12:56;;;;;;;3.00;1.08;;;7.80;99.90;;;;;;4952686;29;20043;-76
2023/01/10 18:15:23;;;;;;;8.30;1.30;;;7.80;99.90;;;;;;4947485;28;20413;-77
2023/01/10 18:17:50;;;;;;;2.28;1.02;;;7.80;99.90;;;;;;4949376;29;20053;-77
2023/01/10 18:20:17;;;;;;;4.63;1.20;;;7.80;99.90;;;;;;4949992;28;20039;-76
2023/01/10 18:25:30;;;;;;;4.22;1.30;;;7.90;99.90;;;;;;4948324;29;20051;-77
2023/01/10 18:27:58;;;;;;;4.30;1.30;;;7.90;99.90;;;;;;4946193;28;20062;-77
2023/01/10 18:30:25;;;;;;;7.60;2.47;;;7.90;99.90;;;;;;4950108;28;20136;-77
2023/01/10 18:32:53;;;;;;;2.95;1.25;;;7.90;99.90;;;;;;4972733;28;20106;-76
2023/01/10 18:35:21;;;;;;;3.80;0.90;;;7.90;99.90;;;;;;4972303;28;20031;-76
2023/01/10 18:37:48;;;;;;;2.78;0.98;;;7.90;99.90;;;;;;4974058;28;20035;-76
2023/01/10 18:40:14;;;;;;;4.50;1.58;;;7.90;99.90;;;;;;4991699;28;20059;-76
2023/01/10 18:42:42;;;;;;;1.92;0.70;;;8.00;99.90;;;;;;4972737;28;20055;-76
2023/01/10 18:45:09;;;;;;;7.60;1.27;;;7.90;99.90;;;;;;4953621;28;20048;-76
2023/01/10 18:47:35;;;;;;;2.53;0.68;;;8.00;99.90;;;;;;4958427;28;20051;-76
2023/01/10 18:50:03;;;;;;;2.78;1.10;;;8.00;99.90;;;;;;4953198;28;20055;-76
2023/01/10 18:52:30;;;;;;;4.22;1.40;;;8.00;99.90;;;;;;4952141;28;20051;-76
2023/01/10 18:54:57;;;;;;;2.97;1.55;;;8.00;99.90;;;;;;4951758;28;20436;-76
2023/01/10 18:57:26;;;;;;;2.92;1.10;;;8.00;99.90;;;;;;4952545;28;20047;-76
2023/01/10 18:59:53;;;;;;;4.55;1.20;;;8.10;99.90;;;;;;4949981;28;20054;-76
2023/01/10 19:02:20;;;;;;;4.63;0.95;;;8.10;99.90;;;;;;4949669;28;20044;-76
2023/01/10 19:04:46;;;;;;;1.83;0.70;;;8.10;99.90;;;;;;4953172;28;20055;-76
2023/01/10 19:07:13;;;;;;;9.70;3.13;;;8.10;99.90;;;;;;4952850;28;20113;-77
2023/01/10 19:09:40;;;;;;;6.07;2.78;;;8.10;99.90;;;;;;4952870;28;20456;-77
2023/01/10 19:12:07;;;;;;;5.15;2.50;;;8.10;99.90;;;;;;4953983;28;20043;-76
2023/01/10 19:14:33;;;;;;;11.45;4.47;;;8.10;99.90;;;;;;4951239;28;20051;-76
2023/01/10 19:17:00;;;;;;;11.98;4.78;;;8.10;99.90;;;;;;4950460;28;20039;-76
2023/01/10 19:19:26;;;;;;;10.65;4.68;;;8.20;99.90;;;;;;4952684;28;20043;-76
2023/01/10 19:21:53;;;;;;;9.77;4.95;;;8.20;99.90;;;;;;4953336;28;20051;-76
2023/01/10 19:24:21;;;;;;;9.95;6.40;;;8.20;99.90;;;;;;4953673;28;20055;-76
2023/01/10 19:26:49;;;;;;;5.00;2.30;;;8.20;99.90;;;;;;4950105;28;20078;-77
2023/01/10 19:29:16;;;;;;;4.28;2.75;;;8.20;99.90;;;;;;4949507;28;20063;-77
2023/01/10 19:31:43;;;;;;;4.57;2.08;;;8.20;99.90;;;;;;4953918;28;20130;-77
2023/01/10 19:34:11;;;;;;;6.15;2.28;;;8.20;99.90;;;;;;4953026;28;20047;-77
2023/01/10 19:36:40;;;;;;;3.92;1.15;;;8.20;99.90;;;;;;4952455;28;20043;-77
2023/01/10 19:39:08;;;;;;;4.25;1.15;;;8.20;99.90;;;;;;4952326;28;20074;-77
2023/01/10 19:41:35;;;;;;;4.47;1.40;;;8.20;99.90;;;;;;4966157;28;20067;-77
2023/01/10 19:44:07;;;;;;;6.47;1.77;;;8.20;99.90;;;;;;4953368;28;20055;-77
2023/01/10 19:46:35;;;;;;;6.55;1.92;;;8.20;99.90;;;;;;4948459;28;20070;-77
2023/01/10 19:49:06;;;;;;;2.53;1.17;;;8.20;99.90;;;;;;4966810;28;20055;-77
2023/01/10 19:51:35;;;;;;;3.00;1.15;;;8.20;99.90;;;;;;4953229;28;20047;-77
2023/01/10 19:54:02;;;;;;;2.95;1.10;;;8.20;99.90;;;;;;4965009;28;20055;-77
2023/01/10 19:56:29;;;;;;;1.40;0.60;;;8.20;99.90;;;;;;4951784;28;20690;-77
2023/01/10 19:58:56;;;;;;;2.60;0.80;;;8.20;99.90;;;;;;4951494;28;20550;-77
2023/01/10 20:01:26;;;;;;;3.15;0.63;;;8.20;99.90;;;;;;4953519;28;20099;-77
2023/01/10 20:03:55;;;;;;;2.20;0.98;;;8.10;99.90;;;;;;4954827;29;20082;-77
2023/01/10 20:06:25;;;;;;;6.50;0.83;;;8.10;99.90;;;;;;4952232;28;20142;-77
2023/01/10 20:08:53;;;;;;;1.70;0.68;;;8.10;99.90;;;;;;4953831;28;20059;-77
2023/01/10 20:11:21;;;;;;;0.77;0.77;;;8.10;99.90;;;;;;4954755;28;20051;-77
2023/01/10 20:13:48;;;;;;;1.75;0.68;;;8.10;99.90;;;;;;4951842;29;20047;-77
2023/01/10 20:16:17;;;;;;;2.53;0.80;;;8.10;99.90;;;;;;4953914;28;20074;-77
2023/01/10 20:18:45;;;;;;;2.30;0.80;;;8.10;99.90;;;;;;4955007;28;20057;-77
2023/01/10 20:21:13;;;;;;;4.05;1.10;;;8.10;99.90;;;;;;4953655;28;20054;-77
2023/01/10 20:23:41;;;;;;;2.92;1.00;;;8.10;99.90;;;;;;4967578;28;20051;-77
2023/01/10 20:26:12;;;;;;;4.80;0.85;;;8.10;99.90;;;;;;4951803;28;20051;-77
2023/01/10 20:28:39;;;;;;;3.05;1.33;;;8.10;99.90;;;;;;4952155;28;20126;-77
2023/01/10 20:31:08;;;;;;;2.00;1.17;;;8.10;99.90;;;;;;4954358;28;20489;-77
2023/01/10 20:33:35;;;;;;;5.53;1.40;;;8.10;99.90;;;;;;4951504;28;20121;-77
2023/01/10 20:36:05;;;;;;;4.43;1.42;;;8.20;99.90;;;;;;4954419;29;20047;-77
2023/01/10 20:38:34;;;;;;;3.42;1.15;;;8.20;99.90;;;;;;4951355;28;20142;-77
2023/01/10 20:41:19;;;;;;;2.80;1.10;;;8.20;99.90;;;;;;4948933;28;20058;-77
2023/01/10 20:43:47;;;;;;;2.55;1.13;;;8.20;99.90;;;;;;4952706;29;20047;-77
2023/01/10 20:46:17;;;;;;;2.50;1.00;;;8.20;99.90;;;;;;4954252;28;20138;-77
2023/01/10 20:48:45;;;;;;;2.70;1.00;;;8.20;99.90;;;;;;4953970;28;20055;-76
2023/01/10 20:51:15;;;;;;;7.53;2.58;;;8.20;99.90;;;;;;4954255;28;20425;-77
2023/01/10 20:53:42;;;;;;;4.23;1.50;;;8.20;99.90;;;;;;4952804;28;20047;-77
2023/01/10 20:56:19;;;;;;;6.13;1.60;;;8.20;99.90;;;;;;4954341;28;20047;-77
2023/01/10 20:58:46;;;;;;;7.55;1.70;;;8.20;99.90;;;;;;4953723;29;20509;-77
2023/01/10 21:01:13;;;;;;;6.32;2.17;;;8.20;99.90;;;;;;4954268;28;20413;-77
2023/01/10 21:03:59;;;;;;;3.88;1.08;;;8.20;99.90;;;;;;4952817;28;20065;-77
2023/01/10 21:06:26;;;;;;;3.83;1.20;;;8.20;99.90;;;;;;4954805;28;20077;-77
2023/01/10 21:08:53;;;;;;;3.45;2.17;;;8.30;99.90;;;;;;4951984;29;20483;-77
2023/01/10 21:11:20;;;;;;;2.08;1.23;;;8.30;99.90;;;;;;4953970;28;20393;-76
2023/01/10 21:13:47;;;;;;;2.35;0.90;;;8.30;99.90;;;;;;4950504;29;20058;-76
2023/01/10 21:16:17;;;;;;;2.50;0.90;;;8.30;99.90;;;;;;4953549;28;20492;-76
2023/01/10 21:18:44;;;;;;;;;;;8.30;99.90;;;;;;4954488;28;20055;-76
2023/01/10 21:21:16;;;;;;;2.45;1.00;;;8.40;99.90;;;;;;4953830;29;19946;-75
2023/01/10 21:23:43;;;;;;;4.90;1.00;;;8.40;99.90;;;;;;4952155;29;20047;-76
2023/01/10 21:26:12;;;;;;;1.10;0.60;;;8.40;99.90;;;;;;4954247;28;20047;-76
2023/01/10 21:28:41;;;;;;;1.13;0.70;;;8.40;99.90;;;;;;4953378;28;20138;-76
2023/01/10 21:31:09;;;;;;;4.03;0.82;;;8.40;99.90;;;;;;4953613;28;20146;-75
2023/01/10 21:33:36;;;;;;;3.75;0.80;;;8.40;99.90;;;;;;4952057;29;20079;-76
2023/01/10 21:36:03;;;;;;;1.70;0.77;;;8.50;99.90;;;;;;4950506;29;20054;-76